< < Back
Terminal Aerodrome Forecast


Current Version              Previous Versions:   1  2  3  4  5  6  7  8  9  

Terminal Aerodrome Forecast

366
FTUS42 KCHS 112322
TAFCHS
TAF
KCHS 112322Z 1200/1224 04004KT P6SM SCT050
     FM120500 05005KT P6SM OVC050
     FM121000 03005KT P6SM SCT020 OVC040
     FM121600 35008KT P6SM SCT010 OVC020
     FM122100 33005KT P6SM SCT025=

Latest METAR

172
SAUS80 KWBC 121400
MTRCHS
METAR KCHS 121356Z 00000KT 10SM BKN015 OVC025 09/04 A3015 RMK AO2 SLP207
T00940039


USA.gov is the U.S. government's official web portal to all federal, state and local government web resources and services.